createdAt,value
2023-05-02T10:39:33.195Z,10.70
2023-05-02T10:42:03.458Z,10.80
2023-05-02T10:44:38.517Z,10.80
2023-05-02T10:47:22.025Z,10.80
2023-05-02T10:49:57.955Z,10.80
2023-05-02T10:52:33.301Z,10.70
2023-05-02T10:55:22.497Z,10.70
2023-05-02T10:58:01.036Z,10.70
2023-05-02T11:00:30.015Z,10.80
2023-05-02T11:02:56.847Z,10.80
2023-05-02T11:05:24.600Z,10.80
2023-05-02T11:08:13.829Z,10.90
2023-05-02T11:10:40.753Z,11.00
2023-05-02T11:13:07.366Z,11.00
2023-05-02T11:15:33.858Z,11.00
2023-05-02T11:18:12.174Z,11.00
2023-05-02T11:20:41.151Z,11.00
2023-05-02T11:23:16.882Z,11.00
2023-05-02T11:25:46.504Z,11.00
2023-05-02T11:28:48.317Z,11.00
2023-05-02T11:31:53.388Z,11.00
2023-05-02T11:34:20.422Z,11.00
2023-05-02T11:36:46.984Z,11.00
2023-05-02T11:39:20.178Z,11.00
2023-05-02T11:41:48.290Z,11.00
2023-05-02T11:44:15.154Z,11.00
2023-05-02T11:46:42.363Z,11.00
2023-05-02T11:49:10.138Z,10.90
2023-05-02T11:51:37.733Z,10.90
2023-05-02T11:54:04.822Z,10.80
2023-05-02T11:56:31.610Z,10.80
2023-05-02T11:59:04.851Z,10.80
2023-05-02T12:01:31.811Z,10.80
2023-05-02T12:04:08.399Z,10.80
2023-05-02T12:06:35.463Z,10.70
2023-05-02T12:09:16.386Z,10.70
2023-05-02T12:11:43.694Z,10.70
2023-05-02T12:14:10.994Z,10.70
2023-05-02T12:16:37.796Z,10.70
2023-05-02T12:19:04.708Z,10.70
2023-05-02T12:21:33.247Z,10.80
2023-05-02T12:24:01.003Z,10.80
2023-05-02T12:26:32.787Z,10.80
2023-05-02T12:29:01.841Z,10.80
2023-05-02T12:31:31.518Z,10.80
2023-05-02T12:34:00.028Z,10.90
2023-05-02T12:36:30.437Z,10.90
2023-05-02T12:38:59.515Z,10.90
2023-05-02T12:41:38.052Z,10.90
2023-05-02T12:44:06.217Z,11.00
2023-05-02T12:46:33.034Z,11.00
2023-05-02T12:49:10.913Z,11.00
2023-05-02T12:51:39.214Z,11.00
2023-05-02T12:54:06.807Z,11.00
2023-05-02T12:56:40.411Z,11.00
2023-05-02T12:59:07.798Z,10.90
2023-05-02T13:01:34.706Z,10.90
2023-05-02T13:04:01.616Z,10.90
2023-05-02T13:06:28.273Z,10.90
2023-05-02T13:08:55.064Z,10.90
2023-05-02T13:11:21.696Z,10.90
2023-05-02T13:13:48.241Z,10.90
2023-05-02T13:16:15.039Z,10.90
2023-05-02T13:18:41.745Z,11.00
2023-05-02T13:21:08.548Z,11.00
2023-05-02T13:23:35.136Z,11.00
2023-05-02T13:26:01.686Z,11.00
2023-05-02T13:28:30.281Z,11.00
2023-05-02T13:30:56.890Z,11.00
2023-05-02T13:33:23.586Z,11.00
2023-05-02T13:35:50.114Z,10.90
2023-05-02T13:38:16.838Z,10.90
2023-05-02T13:40:43.405Z,10.90
2023-05-02T13:43:09.932Z,10.80
2023-05-02T13:45:36.801Z,10.80
2023-05-02T13:48:03.634Z,10.80
2023-05-02T13:50:30.652Z,10.80
2023-05-02T13:52:57.404Z,10.80
2023-05-02T13:55:23.953Z,10.80
2023-05-02T13:57:50.523Z,10.80
2023-05-02T14:00:17.756Z,10.80
2023-05-02T14:02:46.697Z,10.80
2023-05-02T14:05:13.235Z,10.80
2023-05-02T14:07:40.008Z,10.90
2023-05-02T14:10:07.305Z,10.90
2023-05-02T14:12:33.854Z,10.90
2023-05-02T14:15:00.432Z,10.90
2023-05-02T14:17:27.183Z,10.90
2023-05-02T14:19:53.769Z,10.90
2023-05-02T14:22:20.277Z,10.90
2023-05-02T14:24:46.889Z,10.90
2023-05-02T14:27:18.319Z,10.90
2023-05-02T14:29:48.334Z,10.90
2023-05-02T14:32:15.358Z,10.90
2023-05-02T14:34:42.062Z,11.00
2023-05-02T14:37:09.092Z,11.00
2023-05-02T14:39:36.970Z,11.00
2023-05-02T14:42:04.237Z,10.90
2023-05-02T14:44:31.118Z,10.90
2023-05-02T14:46:58.232Z,10.80
2023-05-02T14:49:25.569Z,10.80
2023-05-02T14:51:52.804Z,10.80
2023-05-02T14:54:20.278Z,10.80
2023-05-02T14:56:47.501Z,10.70
2023-05-02T14:59:14.092Z,10.70
2023-05-02T15:01:40.747Z,10.70
2023-05-02T15:04:08.419Z,10.60
2023-05-02T15:06:35.901Z,10.60
2023-05-02T15:09:02.941Z,10.60
2023-05-02T15:11:29.434Z,10.60
2023-05-02T15:13:58.414Z,10.60
2023-05-02T15:16:26.861Z,10.60
2023-05-02T15:18:53.833Z,10.60
2023-05-02T15:21:20.488Z,10.60
2023-05-02T15:23:47.787Z,10.60
2023-05-02T15:26:14.469Z,10.60
2023-05-02T15:28:41.349Z,10.60
2023-05-02T15:31:07.878Z,10.60
2023-05-02T15:33:34.430Z,10.60
2023-05-02T15:36:01.206Z,10.60
2023-05-02T15:38:27.781Z,10.60
2023-05-02T15:40:55.526Z,10.60
2023-05-02T15:43:22.748Z,10.50
2023-05-02T15:45:58.060Z,10.50
2023-05-02T15:48:28.672Z,10.50
2023-05-02T15:50:55.416Z,10.50
2023-05-02T15:53:22.897Z,10.50
2023-05-02T15:55:51.076Z,10.50
2023-05-02T15:58:18.699Z,10.40
2023-05-02T16:00:47.024Z,10.50
2023-05-02T16:03:13.835Z,10.50
2023-05-02T16:05:40.882Z,10.40
2023-05-02T16:08:07.422Z,10.40
2023-05-02T16:10:36.187Z,10.40
2023-05-02T16:13:02.735Z,10.40
2023-05-02T16:15:30.605Z,10.40
2023-05-02T16:17:57.410Z,10.40
2023-05-02T16:20:24.154Z,10.30
2023-05-02T16:22:51.282Z,10.30
2023-05-02T16:25:18.630Z,10.30
2023-05-02T16:27:45.219Z,10.30
2023-05-02T16:30:13.107Z,10.30
2023-05-02T16:32:40.443Z,10.20
2023-05-02T16:35:10.545Z,10.20
2023-05-02T16:37:37.197Z,10.20
2023-05-02T16:40:05.371Z,10.20
2023-05-02T16:42:32.951Z,10.10
2023-05-02T16:44:59.574Z,10.10
2023-05-02T16:47:27.749Z,10.10
2023-05-02T16:49:58.314Z,10.00
2023-05-02T16:52:26.084Z,10.00
2023-05-02T16:54:52.875Z,9.90
2023-05-02T16:57:20.936Z,9.90
2023-05-02T16:59:48.895Z,9.80
2023-05-02T17:02:16.051Z,9.90
2023-05-02T17:04:43.407Z,9.90
2023-05-02T17:07:12.264Z,9.80
2023-05-02T17:09:42.280Z,9.80
2023-05-02T17:12:15.446Z,9.70
2023-05-02T17:14:42.677Z,9.70
2023-05-02T17:17:10.071Z,9.70
2023-05-02T17:19:37.160Z,9.60
2023-05-02T17:22:04.885Z,9.60
2023-05-02T17:24:32.071Z,9.60
2023-05-02T17:26:59.213Z,9.60
2023-05-02T17:29:25.913Z,9.60
2023-05-02T17:31:52.451Z,9.50
2023-05-02T17:34:19.339Z,9.50
2023-05-02T17:36:47.077Z,9.50
2023-05-02T17:39:15.539Z,9.50
2023-05-02T17:41:42.058Z,9.50
2023-05-02T17:44:09.227Z,9.40
2023-05-02T17:46:36.375Z,9.40
2023-05-02T17:49:03.028Z,9.40
2023-05-02T17:51:30.049Z,9.40
2023-05-02T17:53:57.366Z,9.40
2023-05-02T17:56:24.084Z,9.50
2023-05-02T17:58:51.925Z,9.50
2023-05-02T18:01:18.609Z,9.50
2023-05-02T18:03:45.483Z,9.40
2023-05-02T18:06:16.556Z,9.40
2023-05-02T18:08:43.936Z,9.40
2023-05-02T18:11:16.152Z,9.40
2023-05-02T18:13:43.813Z,9.40
2023-05-02T18:16:10.736Z,9.20
2023-05-02T18:18:37.376Z,9.20
2023-05-02T18:21:04.434Z,9.20
2023-05-02T18:23:31.097Z,9.20
2023-05-02T18:25:57.725Z,9.10
2023-05-02T18:28:24.457Z,9.10
2023-05-02T18:30:52.195Z,9.10
2023-05-02T18:33:19.068Z,9.00
2023-05-02T18:35:47.414Z,9.00
2023-05-02T18:38:14.367Z,9.00
2023-05-02T18:40:41.410Z,9.00
2023-05-02T18:43:08.149Z,8.90
2023-05-02T18:45:35.688Z,8.90
2023-05-02T18:48:03.401Z,8.90
2023-05-02T18:50:30.034Z,8.90
2023-05-02T18:52:56.606Z,8.80
2023-05-02T18:55:25.207Z,8.90
2023-05-02T18:57:52.112Z,8.90
2023-05-02T19:00:20.107Z,8.90
2023-05-02T19:02:47.215Z,8.80
2023-05-02T19:05:13.798Z,8.80
2023-05-02T19:07:40.381Z,8.70
2023-05-02T19:10:07.232Z,8.70
2023-05-02T19:12:33.842Z,8.60
2023-05-02T19:15:00.779Z,8.60
2023-05-02T21:05:56.960Z,7.50
2023-05-02T21:08:23.826Z,7.50
2023-05-02T21:10:51.281Z,7.50
2023-05-02T21:13:18.079Z,7.50
2023-05-02T21:15:44.732Z,7.40
2023-05-02T21:18:11.725Z,7.40
2023-05-02T21:20:39.515Z,7.40
2023-05-02T21:23:06.353Z,7.30
2023-05-02T21:25:33.001Z,7.30
2023-05-02T21:27:59.513Z,7.30
2023-05-02T21:30:26.022Z,7.30
2023-05-02T21:32:52.673Z,7.30
2023-05-02T21:35:19.681Z,7.20
2023-05-02T21:37:46.198Z,7.20
2023-05-02T21:40:13.103Z,7.20
2023-05-02T21:42:40.798Z,7.20
2023-05-02T22:04:47.984Z,7.20
2023-05-02T22:07:15.803Z,7.00
2023-05-02T22:09:42.570Z,6.90
2023-05-02T22:12:09.324Z,6.90
2023-05-02T22:14:44.299Z,6.90
2023-05-02T22:17:12.241Z,6.90
2023-05-02T22:19:39.198Z,6.80
2023-05-02T22:22:06.461Z,6.80
2023-05-02T22:24:33.301Z,6.80
2023-05-02T22:26:59.796Z,6.70
2023-05-02T22:29:26.702Z,6.70
2023-05-02T22:31:53.307Z,6.70
2023-05-02T22:36:47.406Z,6.70
2023-05-02T22:41:42.910Z,6.60
2023-05-02T22:44:10.014Z,6.70
2023-05-02T22:46:38.109Z,6.50
2023-05-02T22:49:09.410Z,6.50
2023-05-02T22:51:37.764Z,6.50
2023-05-02T22:54:05.882Z,6.70
2023-05-02T22:56:32.729Z,6.60
2023-05-02T22:58:59.235Z,6.50
2023-05-02T23:06:20.015Z,6.50
2023-05-02T23:08:46.527Z,6.40
2023-05-02T23:11:13.110Z,6.40
2023-05-02T23:13:39.626Z,6.30
2023-05-02T23:16:08.381Z,6.80
